Time;durP1;ratioP1;P1;durP2;ratioP2;P2;SDS_P1;SDS_P2;PMS_P1;PMS_P2;Temp;Humidity;BMP_temperature;BMP_pressure;BME280_temperature;BME280_humidity;BME280_pressure;Samples;Min_cycle;Max_cycle;Signal;HPM_P1;HPM_P2
2023/01/12 00:00:35;;;;;;;5.15;3.03;;;;;;;3.85;100.00;100401.34;6250409;28;20091;-86
2023/01/12 00:03:36;;;;;;;6.47;3.67;;;;;;;3.90;100.00;100393.47;6249131;28;20152;-79
2023/01/12 00:06:37;;;;;;;7.03;3.65;;;;;;;3.89;100.00;100395.19;6249035;28;20049;-85
2023/01/12 00:09:37;;;;;;;5.63;3.75;;;;;;;3.88;100.00;100382.34;6249045;28;20049;-79
2023/01/12 00:12:38;;;;;;;18.08;4.32;;;;;;;3.83;100.00;100388.47;6249111;28;20072;-79
2023/01/12 00:19:12;;;;;;;8.50;3.72;;;;;;;3.87;100.00;100386.66;6249728;28;20060;-85
2023/01/12 00:22:13;;;;;;;8.48;5.05;;;;;;;3.90;100.00;100385.72;6248500;28;20048;-80
2023/01/12 00:25:14;;;;;;;6.65;3.88;;;;;;;3.81;100.00;100387.66;6248715;28;20042;-79
2023/01/12 00:28:15;;;;;;;20.42;9.75;;;;;;;3.82;100.00;100394.50;6248563;28;20054;-80
2023/01/12 00:31:15;;;;;;;9.00;5.43;;;;;;;3.73;100.00;100386.19;6249717;28;20041;-80
2023/01/12 00:34:16;;;;;;;6.13;3.50;;;;;;;3.87;100.00;100403.84;6249090;28;20481;-79
2023/01/12 00:37:18;;;;;;;5.18;3.72;;;;;;;3.89;100.00;100395.19;6248048;28;20492;-79
2023/01/12 00:40:19;;;;;;;5.50;3.07;;;;;;;3.90;100.00;100399.47;6249496;28;20047;-79
2023/01/12 00:46:39;;;;;;;9.23;3.28;;;;;;;3.91;100.00;100418.38;6249309;28;20045;-85
2023/01/12 00:49:40;;;;;;;6.68;3.63;;;;;;;3.99;100.00;100427.59;6249220;28;20049;-80
2023/01/12 00:52:41;;;;;;;6.72;3.63;;;;;;;3.92;100.00;100422.66;6247978;28;20042;-85
2023/01/12 00:55:42;;;;;;;6.00;3.92;;;;;;;3.97;100.00;100428.53;6247971;28;20045;-80
2023/01/12 00:58:45;;;;;;;7.97;4.45;;;;;;;3.99;100.00;100425.00;6247877;28;20045;-85
2023/01/12 01:01:46;;;;;;;8.00;4.60;;;;;;;3.94;100.00;100421.72;6248737;28;20123;-86
2023/01/12 01:04:48;;;;;;;6.20;4.03;;;;;;;3.97;100.00;100416.47;6248863;28;20042;-85
2023/01/12 01:07:49;;;;;;;11.03;5.17;;;;;;;4.03;100.00;100421.44;6248811;28;20069;-85
2023/01/12 01:11:00;;;;;;;6.53;3.58;;;;;;;3.98;100.00;100412.16;6248699;28;20041;-85
2023/01/12 01:14:01;;;;;;;6.60;3.92;;;;;;;3.99;100.00;100425.00;6247567;28;20069;-79
2023/01/12 01:17:02;;;;;;;4.97;3.47;;;;;;;3.95;100.00;100425.16;6248359;28;20045;-80
2023/01/12 01:20:03;;;;;;;7.78;4.75;;;;;;;3.86;100.00;100434.00;6247395;28;20470;-80
2023/01/12 01:23:07;;;;;;;7.13;4.57;;;;;;;3.89;100.00;100433.94;6247319;28;20041;-80
2023/01/12 01:26:13;;;;;;;5.60;3.80;;;;;;;3.88;100.00;100432.22;6248378;28;20390;-80
2023/01/12 01:29:14;;;;;;;7.03;3.88;;;;;;;3.84;100.00;100430.59;6248362;28;20093;-80
2023/01/12 01:32:15;;;;;;;14.73;4.10;;;;;;;3.82;100.00;100427.22;6246905;28;20060;-79
2023/01/12 01:35:16;;;;;;;7.72;4.57;;;;;;;3.98;100.00;100419.91;6246408;28;20033;-79
2023/01/12 01:38:17;;;;;;;7.85;4.07;;;;;;;3.95;100.00;100425.97;6246164;28;20087;-85
2023/01/12 01:41:34;;;;;;;9.90;4.60;;;;;;;4.02;100.00;100424.94;6247712;28;20041;-85
2023/01/12 01:44:49;;;;;;;7.45;5.15;;;;;;;3.93;100.00;100424.34;6247451;28;20128;-85
2023/01/12 01:47:57;;;;;;;10.15;4.78;;;;;;;3.96;100.00;100419.09;6247903;28;20087;-86
2023/01/12 01:51:07;;;;;;;6.70;3.72;;;;;;;3.98;100.00;100419.91;6247943;28;20052;-85
2023/01/12 01:54:08;;;;;;;9.60;4.72;;;;;;;3.97;100.00;100418.19;6247877;28;20048;-85
2023/01/12 01:57:11;;;;;;;6.53;3.60;;;;;;;4.03;100.00;100418.03;6246619;28;20041;-79
2023/01/12 02:00:14;;;;;;;7.35;4.38;;;;;;;4.03;100.00;100423.19;6246732;28;20061;-86
2023/01/12 02:03:17;;;;;;;4.95;3.67;;;;;;;4.05;100.00;100416.25;6247748;28;20045;-80
2023/01/12 02:06:18;;;;;;;5.93;4.00;;;;;;;4.10;100.00;100414.41;6246517;28;20052;-86
2023/01/12 02:09:27;;;;;;;7.40;4.20;;;;;;;4.09;100.00;100417.84;6246480;28;20049;-85
2023/01/12 02:19:33;;;;;;;7.20;3.60;;;;;;;4.27;100.00;100419.06;6245872;28;20076;-80
2023/01/12 02:22:49;;;;;;;6.50;3.58;;;;;;;4.32;100.00;100422.34;6247228;28;20045;-80
2023/01/12 02:26:27;;;;;;;8.50;4.65;;;;;;;4.30;100.00;100424.13;6271770;28;20041;-85
2023/01/12 02:29:43;;;;;;;6.22;3.65;;;;;;;4.39;100.00;100430.78;6272120;28;20084;-86
2023/01/12 02:33:08;;;;;;;5.80;4.07;;;;;;;4.35;100.00;100424.88;6272045;28;20052;-80
2023/01/12 02:36:37;;;;;;;10.57;5.22;;;;;;;4.39;100.00;100438.53;6270898;28;20098;-80
2023/01/12 02:40:01;;;;;;;9.63;5.63;;;;;;;4.42;100.00;100428.94;6255902;28;20088;-85
2023/01/12 02:43:09;;;;;;;5.07;3.72;;;;;;;4.38;100.00;100401.50;6270612;28;20489;-85
2023/01/12 02:46:26;;;;;;;9.18;4.78;;;;;;;4.48;100.00;100424.50;6275909;28;20120;-80
2023/01/12 02:49:34;;;;;;;7.80;4.05;;;;;;;4.49;100.00;100416.72;6275721;28;20041;-80
2023/01/12 02:52:46;;;;;;;7.00;4.63;;;;;;;4.52;100.00;100414.03;6276686;28;20041;-86
2023/01/12 02:55:49;;;;;;;6.38;4.43;;;;;;;4.45;100.00;100409.94;6276686;28;20454;-86
2023/01/12 02:58:55;;;;;;;7.63;4.70;;;;;;;4.41;100.00;100403.19;6291892;28;20048;-86
2023/01/12 03:02:09;;;;;;;5.75;3.67;;;;;;;4.45;100.00;100399.59;6275226;28;20044;-80
2023/01/12 03:05:13;;;;;;;6.20;4.68;;;;;;;4.57;100.00;100406.13;6276413;28;20041;-86
2023/01/12 03:08:17;;;;;;;9.55;6.38;;;;;;;4.54;100.00;100412.22;6276307;28;20040;-86
2023/01/12 03:11:21;;;;;;;6.82;4.65;;;;;;;4.61;100.00;100408.59;6276399;28;20060;-86
2023/01/12 03:14:22;;;;;;;7.45;4.57;;;;;;;4.66;100.00;100410.19;6275017;28;20041;-86
2023/01/12 03:17:29;;;;;;;8.07;5.57;;;;;;;4.69;100.00;100402.31;6275994;28;20055;-86
2023/01/12 03:20:39;;;;;;;12.15;5.57;;;;;;;4.75;100.00;100410.72;6276133;28;20091;-80
2023/01/12 03:23:52;;;;;;;7.43;4.95;;;;;;;4.76;100.00;100386.56;6275778;28;20051;-86
2023/01/12 03:27:03;;;;;;;10.30;5.95;;;;;;;4.90;100.00;100411.13;6274015;28;20044;-86
2023/01/12 03:30:15;;;;;;;11.48;5.78;;;;;;;4.88;100.00;100410.34;6275410;28;20443;-86
2023/01/12 03:33:16;;;;;;;13.98;5.35;;;;;;;4.90;100.00;100414.59;6276103;28;20159;-86
2023/01/12 03:36:35;;;;;;;10.73;5.32;;;;;;;4.95;100.00;100415.28;6274424;28;20049;-85
2023/01/12 03:39:39;;;;;;;7.72;5.30;;;;;;;5.03;100.00;100415.03;6275618;28;20052;-80
2023/01/12 03:42:50;;;;;;;17.63;5.10;;;;;;;4.97;100.00;100405.72;6275378;28;20041;-79
2023/01/12 03:46:01;;;;;;;8.40;3.97;;;;;;;4.95;100.00;100406.69;6273817;28;20555;-86
2023/01/12 03:49:05;;;;;;;9.25;4.22;;;;;;;4.96;100.00;100410.94;6273427;28;20052;-86
2023/01/12 03:52:08;;;;;;;9.05;5.45;;;;;;;4.91;100.00;100413.69;6273588;28;20550;-86
2023/01/12 03:55:16;;;;;;;13.60;5.03;;;;;;;4.94;100.00;100416.19;6274555;28;20037;-86
2023/01/12 03:58:17;;;;;;;7.88;5.32;;;;;;;4.83;100.00;100413.91;6273945;28;20033;-80
2023/01/12 04:01:18;;;;;;;14.37;5.93;;;;;;;4.88;100.00;100412.91;6273220;28;20095;-80
2023/01/12 04:04:21;;;;;;;12.00;6.03;;;;;;;4.83;100.00;100410.50;6273126;28;20040;-80
2023/01/12 04:07:22;;;;;;;;;;;;;;;4.89;100.00;100409.47;6274735;28;20128;-80
2023/01/12 04:10:27;;;;;;;8.23;5.13;;;;;;;4.85;100.00;100404.38;6273110;28;19920;-87
2023/01/12 04:13:28;;;;;;;11.50;6.20;;;;;;;4.93;100.00;100413.63;6274084;28;20499;-80
2023/01/12 04:16:29;;;;;;;9.40;5.03;;;;;;;4.94;100.00;100412.72;6272961;28;20128;-80
2023/01/12 04:19:30;;;;;;;14.32;6.53;;;;;;;5.03;100.00;100410.69;6272513;28;20051;-80
2023/01/12 04:22:42;;;;;;;11.07;6.07;;;;;;;5.02;100.00;100400.41;6273876;28;20072;-80
2023/01/12 04:25:43;;;;;;;16.58;6.10;;;;;;;5.00;100.00;100415.13;6273869;28;20072;-86
2023/01/12 04:28:44;;;;;;;10.40;6.43;;;;;;;5.00;100.00;100405.63;6273750;28;20439;-87
2023/01/12 04:31:45;;;;;;;14.00;6.20;;;;;;;5.03;100.00;100415.03;6272575;28;20033;-86
2023/01/12 04:34:46;;;;;;;12.25;6.30;;;;;;;5.03;100.00;100423.63;6273466;28;20136;-86
2023/01/12 04:37:47;;;;;;;12.88;6.20;;;;;;;5.09;100.00;100426.94;6273804;28;20037;-80
2023/01/12 04:40:53;;;;;;;14.30;7.55;;;;;;;5.08;100.00;100426.06;6272163;28;20049;-87
2023/01/12 04:43:54;;;;;;;8.48;5.35;;;;;;;5.13;100.00;100431.09;6273312;28;20547;-80
2023/01/12 04:46:57;;;;;;;8.85;5.40;;;;;;;5.11;100.00;100422.56;6272109;28;20036;-86
2023/01/12 04:49:58;;;;;;;10.90;6.70;;;;;;;5.02;100.00;100418.50;6273228;28;20041;-86
2023/01/12 04:53:02;;;;;;;17.15;7.28;;;;;;;5.03;100.00;100433.13;6273122;28;20521;-86
2023/01/12 04:56:07;;;;;;;10.55;6.07;;;;;;;5.04;100.00;100427.94;6271914;28;20052;-86
2023/01/12 04:59:10;;;;;;;15.98;7.32;;;;;;;5.09;100.00;100424.34;6271807;28;20041;-87
2023/01/12 05:02:13;;;;;;;11.52;6.57;;;;;;;5.05;100.00;100418.41;6272853;28;20561;-87
2023/01/12 05:05:14;;;;;;;27.67;11.98;;;;;;;5.13;100.00;100425.94;6272845;28;20040;-86
2023/01/12 05:11:34;;;;;;;37.53;16.83;;;;;;;5.05;100.00;100432.19;6272671;28;20037;-80
2023/01/12 05:14:37;;;;;;;24.65;12.57;;;;;;;5.02;100.00;100421.94;6271374;28;20099;-80
2023/01/12 05:17:40;;;;;;;19.75;9.60;;;;;;;5.03;100.00;100430.56;6270812;28;20057;-87
2023/01/12 05:20:43;;;;;;;15.68;7.57;;;;;;;5.12;100.00;100450.09;6272887;28;20451;-87
2023/01/12 05:23:45;;;;;;;15.55;6.82;;;;;;;4.98;100.00;100438.47;6304614;28;20055;-87
2023/01/12 05:26:45;;;;;;;11.73;6.30;;;;;;;5.08;100.00;100453.69;6271172;28;20045;-87
2023/01/12 05:29:46;;;;;;;13.55;7.53;;;;;;;5.00;100.00;100453.91;6271056;28;20052;-79
2023/01/12 05:32:47;;;;;;;15.85;7.00;;;;;;;5.05;100.00;100457.22;6270947;28;20045;-79
2023/01/12 05:35:48;;;;;;;15.55;6.97;;;;;;;5.06;100.00;100456.31;6270863;28;20094;-80
2023/01/12 05:38:48;;;;;;;16.88;6.63;;;;;;;5.05;100.00;100449.44;6272077;28;20033;-85
2023/01/12 05:45:09;;;;;;;12.30;6.38;;;;;;;5.10;100.00;100451.88;6272109;28;20062;-87
2023/01/12 05:48:10;;;;;;;12.63;6.63;;;;;;;5.11;100.00;100451.00;6270897;28;20099;-85
2023/01/12 05:51:12;;;;;;;11.95;6.53;;;;;;;5.07;100.00;100452.00;6270953;28;20159;-86
2023/01/12 05:54:12;;;;;;;11.95;7.35;;;;;;;5.15;100.00;100448.25;6271822;28;20049;-86
2023/01/12 05:57:13;;;;;;;10.77;6.03;;;;;;;5.05;100.00;100445.13;6271720;28;20048;-86
2023/01/12 06:00:15;;;;;;;15.27;6.80;;;;;;;5.17;100.00;100445.63;6271711;28;20045;-86
2023/01/12 06:03:17;;;;;;;;;;;;;;;5.27;100.00;100438.41;6272170;28;20037;-87
2023/01/12 06:06:19;;;;;;;9.70;6.07;;;;;;;5.24;100.00;100424.66;6253640;28;19947;-87
2023/01/12 06:09:20;;;;;;;10.32;5.80;;;;;;;5.18;100.00;100430.03;6270445;28;20065;-86
2023/01/12 06:15:40;;;;;;;10.82;5.80;;;;;;;5.08;100.00;100428.66;6271400;28;20116;-81
2023/01/12 06:18:41;;;;;;;12.55;6.70;;;;;;;5.07;100.00;100426.13;6286312;28;20071;-81
2023/01/12 06:21:41;;;;;;;22.70;6.65;;;;;;;5.16;100.00;100436.16;6270068;28;20037;-80
2023/01/12 06:24:44;;;;;;;10.45;6.80;;;;;;;5.18;100.00;100442.97;6270139;28;20049;-87
2023/01/12 06:27:45;;;;;;;14.40;8.68;;;;;;;5.14;100.00;100433.63;6270022;28;20144;-87
2023/01/12 06:31:00;;;;;;;13.00;6.68;;;;;;;5.28;100.00;100440.94;6271363;28;20049;-87
2023/01/12 06:34:01;;;;;;;9.00;5.50;;;;;;;5.29;100.00;100440.03;6271144;28;20056;-81
2023/01/12 06:37:07;;;;;;;7.82;4.95;;;;;;;5.30;100.00;100427.97;6270108;28;20135;-80
2023/01/12 06:40:08;;;;;;;13.30;5.47;;;;;;;5.23;100.00;100423.00;6269964;28;20052;-81
2023/01/12 06:43:11;;;;;;;11.30;5.50;;;;;;;5.24;100.00;100426.41;6286634;28;20064;-81
2023/01/12 06:46:12;;;;;;;10.13;6.20;;;;;;;5.23;100.00;100433.34;6269863;28;20044;-80
2023/01/12 06:49:16;;;;;;;13.35;6.07;;;;;;;5.17;100.00;100427.53;6269820;28;20049;-86
2023/01/12 06:52:23;;;;;;;9.55;5.38;;;;;;;5.21;100.00;100429.97;6269747;28;20400;-80
2023/01/12 06:55:24;;;;;;;9.70;6.13;;;;;;;5.27;100.00;100438.41;6269836;28;20065;-86
2023/01/12 06:58:26;;;;;;;12.87;5.97;;;;;;;5.21;100.00;100437.72;6270178;28;20053;-80
2023/01/12 07:01:26;;;;;;;10.65;5.63;;;;;;;5.27;100.00;100443.56;6271054;28;20451;-86
2023/01/12 07:04:27;;;;;;;11.45;6.15;;;;;;;5.36;100.00;100445.88;6269689;28;20041;-80
2023/01/12 07:07:28;;;;;;;11.43;5.85;;;;;;;5.45;100.00;100442.97;6271194;28;20045;-86
2023/01/12 07:10:31;;;;;;;13.32;7.38;;;;;;;5.39;100.00;100444.00;6269718;28;20485;-86
2023/01/12 07:13:33;;;;;;;8.55;6.15;;;;;;;5.48;100.00;100449.78;6269595;28;20098;-86
2023/01/12 07:16:33;;;;;;;15.15;6.55;;;;;;;5.45;100.00;100442.97;6270911;28;20080;-80
2023/01/12 07:19:36;;;;;;;12.63;6.22;;;;;;;5.45;100.00;100441.22;6269284;28;20464;-80
2023/01/12 07:22:38;;;;;;;17.20;6.20;;;;;;;5.47;100.00;100442.91;6270820;28;20044;-86
2023/01/12 07:25:39;;;;;;;8.35;5.95;;;;;;;5.59;100.00;100463.22;6270622;28;20037;-80
2023/01/12 07:28:41;;;;;;;12.60;6.30;;;;;;;5.48;100.00;100462.72;6269504;28;20552;-80
2023/01/12 07:31:44;;;;;;;13.60;5.50;;;;;;;5.54;100.00;100462.50;6270744;28;20037;-80
2023/01/12 07:34:44;;;;;;;;;;;;;;;5.59;100.00;100465.81;6274290;28;20041;-86
2023/01/12 07:37:49;;;;;;;9.60;4.60;;;;;;;5.50;100.00;100464.38;6273763;28;19921;-80
2023/01/12 07:40:55;;;;;;;11.63;6.22;;;;;;;5.61;100.00;100458.81;6273798;28;20041;-87
2023/01/12 07:43:56;;;;;;;9.20;5.63;;;;;;;5.61;100.00;100456.25;6273617;28;20041;-87
2023/01/12 07:46:58;;;;;;;14.95;7.80;;;;;;;5.73;100.00;100460.16;6275062;28;20127;-81
2023/01/12 07:49:59;;;;;;;17.05;6.88;;;;;;;5.76;100.00;100467.81;6274818;28;20148;-85
2023/01/12 07:53:01;;;;;;;7.30;5.28;;;;;;;5.74;100.00;100470.44;6274690;28;20481;-80
2023/01/12 07:56:02;;;;;;;9.73;5.68;;;;;;;5.85;100.00;100460.56;6289825;28;20416;-87
2023/01/12 07:59:03;;;;;;;9.23;5.82;;;;;;;5.94;100.00;100471.50;6273066;28;20033;-87
2023/01/12 08:02:04;;;;;;;14.70;7.82;;;;;;;6.00;100.00;100481.69;6273161;28;20037;-86
2023/01/12 08:05:05;;;;;;;12.37;6.47;;;;;;;5.84;100.00;100489.94;6306479;28;20084;-80
2023/01/12 08:08:06;;;;;;;10.43;6.85;;;;;;;6.00;100.00;100487.72;6272850;28;20044;-80
2023/01/12 08:11:09;;;;;;;14.25;6.53;;;;;;;5.97;100.00;100494.72;6272830;28;20120;-80
2023/01/12 08:14:37;;;;;;;16.25;6.72;;;;;;;5.86;100.00;100492.50;6274126;28;20041;-79
2023/01/12 08:17:55;;;;;;;9.55;5.43;;;;;;;5.98;100.00;100497.28;6272157;28;20089;-81
2023/01/12 08:21:01;;;;;;;10.20;4.97;;;;;;;6.01;100.00;100512.72;6272896;28;20041;-79
2023/01/12 08:24:05;;;;;;;7.57;5.50;;;;;;;5.90;100.00;100509.63;6272683;28;20045;-79
2023/01/12 08:27:09;;;;;;;10.70;5.85;;;;;;;5.92;100.00;100525.13;6273775;28;20041;-79
2023/01/12 08:30:14;;;;;;;15.00;5.22;;;;;;;5.86;100.00;100518.38;6272576;28;20049;-82
2023/01/12 08:33:15;;;;;;;9.15;5.20;;;;;;;5.86;100.00;100510.63;6289201;28;20053;-79
2023/01/12 08:36:17;;;;;;;7.32;4.65;;;;;;;5.96;100.00;100526.72;6272414;28;20055;-79
2023/01/12 08:39:18;;;;;;;10.80;5.72;;;;;;;6.01;100.00;100528.28;6272347;28;20374;-79
2023/01/12 08:42:23;;;;;;;8.43;5.90;;;;;;;5.94;100.00;100531.94;6273855;28;20045;-79
2023/01/12 08:45:23;;;;;;;9.43;5.60;;;;;;;6.02;100.00;100527.34;6272109;28;20144;-79
2023/01/12 08:48:24;;;;;;;10.65;6.35;;;;;;;6.26;100.00;100548.16;6288770;28;20063;-79
2023/01/12 08:51:25;;;;;;;17.92;7.30;;;;;;;6.14;100.00;100528.69;6272260;28;20041;-79
2023/01/12 08:54:26;;;;;;;16.95;6.03;;;;;;;6.30;100.00;100534.19;6272010;28;20045;-79
2023/01/12 08:57:27;;;;;;;11.15;5.57;;;;;;;6.29;100.00;100542.84;6271806;28;20045;-79
2023/01/12 09:00:28;;;;;;;8.65;5.32;;;;;;;6.27;100.00;100542.03;6273007;28;20397;-79
2023/01/12 09:03:31;;;;;;;12.30;5.82;;;;;;;6.06;100.00;100538.47;6271711;28;20045;-79
2023/01/12 09:06:41;;;;;;;10.82;6.00;;;;;;;6.23;100.00;100538.72;6272799;28;20041;-79
2023/01/12 09:09:42;;;;;;;12.27;6.00;;;;;;;6.30;100.00;100541.09;6271649;28;20044;-80
2023/01/12 09:12:43;;;;;;;17.35;6.40;;;;;;;6.30;100.00;100513.44;6271588;28;20043;-80
2023/01/12 09:15:46;;;;;;;13.52;5.75;;;;;;;6.31;100.00;100522.91;6271334;28;20049;-79
2023/01/12 09:18:47;;;;;;;13.15;5.55;;;;;;;6.41;100.00;100524.25;6270940;28;20053;-79
2023/01/12 09:21:48;;;;;;;12.43;6.07;;;;;;;6.45;100.00;100506.84;6271262;28;20048;-80
2023/01/12 09:24:48;;;;;;;10.23;5.72;;;;;;;6.60;100.00;100513.22;6272275;28;20037;-79
2023/01/12 09:27:49;;;;;;;8.00;4.93;;;;;;;6.62;100.00;100503.63;6271027;28;20086;-79
2023/01/12 09:30:50;;;;;;;10.38;6.05;;;;;;;6.51;100.00;100503.19;6304448;28;20055;-79
2023/01/12 09:33:52;;;;;;;11.93;5.30;;;;;;;6.51;100.00;100518.75;6271012;28;20551;-79
2023/01/12 09:36:55;;;;;;;14.32;6.15;;;;;;;6.53;100.00;100520.38;6272060;28;20040;-85
2023/01/12 09:39:59;;;;;;;13.45;5.82;;;;;;;6.47;100.00;100518.00;6270895;28;20045;-86
2023/01/12 09:50:09;;;;;;;6.75;4.50;;;;;;;7.15;100.00;100507.66;6271880;28;20095;-86
2023/01/12 09:53:25;;;;;;;7.07;3.65;;;;;;;6.86;100.00;100502.69;6271930;28;20041;-85
2023/01/12 09:56:26;;;;;;;14.77;5.03;;;;;;;7.10;100.00;100502.63;6270237;28;20049;-87
2023/01/12 09:59:46;;;;;;;7.55;4.50;;;;;;;7.17;100.00;100485.94;6270484;28;20053;-79
2023/01/12 10:03:03;;;;;;;8.77;3.88;;;;;;;7.50;100.00;100484.63;6271820;28;20094;-86
2023/01/12 10:06:05;;;;;;;6.75;4.82;;;;;;;7.56;100.00;100485.22;6271655;28;20041;-79
2023/01/12 10:09:20;;;;;;;9.60;4.68;;;;;;;7.69;98.71;100489.91;6270461;28;20044;-79
2023/01/12 10:12:27;;;;;;;7.32;4.45;;;;;;;7.64;98.35;100488.34;6271504;28;20044;-86
2023/01/12 10:15:37;;;;;;;11.73;4.85;;;;;;;8.02;96.98;100479.81;6271573;28;20511;-86
2023/01/12 10:18:44;;;;;;;7.60;5.43;;;;;;;7.81;95.59;100490.22;6270114;28;20508;-86
2023/01/12 10:21:46;;;;;;;7.97;4.43;;;;;;;7.88;96.17;100483.84;6303787;28;20037;-79
2023/01/12 10:24:50;;;;;;;6.35;4.05;;;;;;;8.00;95.82;100484.22;6270422;28;20045;-79
2023/01/12 10:27:56;;;;;;;5.93;3.88;;;;;;;8.16;92.37;100481.81;6271289;28;20048;-79
2023/01/12 10:30:58;;;;;;;7.65;4.97;;;;;;;8.41;93.91;100485.03;6271301;28;20519;-79
2023/01/12 10:34:07;;;;;;;9.18;3.85;;;;;;;8.30;90.68;100476.84;6270061;28;20048;-86
2023/01/12 10:37:10;;;;;;;32.78;4.25;;;;;;;8.40;91.06;100482.44;6269938;28;20497;-85
2023/01/12 10:40:33;;;;;;;8.98;4.47;;;;;;;8.65;89.14;100490.88;6270297;28;20215;-84
2023/01/12 10:43:35;;;;;;;7.93;4.53;;;;;;;8.82;88.16;100487.47;6270040;28;20052;-80
2023/01/12 10:46:36;;;;;;;6.27;3.93;;;;;;;8.91;84.13;100490.56;6253259;28;20294;-86
2023/01/12 10:49:37;;;;;;;4.35;3.20;;;;;;;8.90;82.28;100494.94;6269596;28;20119;-80
2023/01/12 10:52:39;;;;;;;4.85;3.42;;;;;;;8.79;83.82;100484.19;6269971;28;20049;-87
2023/01/12 10:55:41;;;;;;;5.25;3.92;;;;;;;8.88;82.89;100473.34;6270995;28;20088;-87
2023/01/12 10:58:45;;;;;;;6.88;3.75;;;;;;;8.79;84.33;100481.56;6269803;28;20048;-87
2023/01/12 11:02:02;;;;;;;6.53;4.03;;;;;;;8.68;87.83;100477.72;6271020;28;20048;-85
2023/01/12 11:05:34;;;;;;;13.77;4.57;;;;;;;8.18;87.12;100469.59;6286371;28;20052;-85
2023/01/12 11:08:35;;;;;;;5.97;3.97;;;;;;;8.04;87.82;100472.78;6273943;28;20554;-85
2023/01/12 11:11:37;;;;;;;6.88;4.15;;;;;;;7.96;89.81;100459.28;6274415;28;20033;-78
2023/01/12 11:14:40;;;;;;;;;;;;;;;8.01;92.10;100467.72;6274782;28;20408;-78
2023/01/12 11:18:16;;;;;;;;;;;;;;;7.97;91.53;100472.22;6275561;28;20015;-80
2023/01/12 11:21:21;;;;;;;5.80;3.45;;;;;;;7.92;92.90;100471.56;6224474;28;20429;-78
2023/01/12 11:24:33;;;;;;;8.93;4.32;;;;;;;7.87;92.31;100474.38;6274290;28;20045;-78
2023/01/12 11:27:52;;;;;;;;;;;;;;;8.02;93.22;100472.00;6275609;28;20045;-84
2023/01/12 11:30:59;;;;;;;6.30;4.10;;;;;;;8.01;90.26;100468.59;6275177;28;19927;-86
2023/01/12 11:34:15;;;;;;;4.30;2.58;;;;;;;7.85;90.29;100459.75;6273942;28;20045;-86
2023/01/12 11:37:17;;;;;;;6.25;3.30;;;;;;;7.95;89.83;100461.06;6307227;28;20130;-80
2023/01/12 11:40:36;;;;;;;6.33;3.70;;;;;;;7.96;89.34;100457.53;6273630;28;20465;-80
2023/01/12 11:43:50;;;;;;;13.25;4.30;;;;;;;8.08;89.82;100444.00;6273622;28;20757;-80
2023/01/12 11:46:58;;;;;;;4.45;3.00;;;;;;;8.21;88.75;100444.28;6273673;28;20455;-86
2023/01/12 11:50:34;;;;;;;8.07;3.78;;;;;;;8.45;88.02;100436.31;6273394;28;20389;-80
2023/01/12 11:53:35;;;;;;;6.97;3.42;;;;;;;8.28;88.07;100442.28;6274676;28;20041;-79
2023/01/12 11:56:53;;;;;;;9.43;4.63;;;;;;;8.22;86.65;100434.75;6274519;28;20090;-80
2023/01/12 12:00:12;;;;;;;7.53;3.58;;;;;;;8.52;84.39;100434.28;6273177;28;20112;-79
2023/01/12 12:03:36;;;;;;;8.35;4.13;;;;;;;8.82;84.95;100432.00;6274453;28;20120;-80
2023/01/12 12:07:04;;;;;;;9.18;3.88;;;;;;;8.84;83.59;100414.56;6273139;28;20477;-86
2023/01/12 12:10:26;;;;;;;11.20;6.05;;;;;;;8.78;86.39;100433.06;6273011;28;20455;-80
2023/01/12 12:13:32;;;;;;;6.07;3.90;;;;;;;8.94;84.94;100438.41;6274211;28;20049;-79
2023/01/12 12:16:33;;;;;;;10.90;5.10;;;;;;;9.17;83.34;100432.06;6274118;28;20037;-79
2023/01/12 12:19:39;;;;;;;13.68;5.03;;;;;;;8.76;85.64;100427.09;6273261;28;20508;-79
2023/01/12 12:22:58;;;;;;;7.43;4.53;;;;;;;8.66;86.66;100424.06;6256017;28;20086;-80
2023/01/12 12:26:20;;;;;;;7.78;4.85;;;;;;;8.46;88.00;100425.00;6272441;28;20053;-86
2023/01/12 12:29:27;;;;;;;6.95;4.05;;;;;;;8.47;89.83;100422.34;6272533;28;20094;-86
2023/01/12 12:32:49;;;;;;;8.75;5.68;;;;;;;8.47;89.66;100422.34;6272629;28;20052;-86
2023/01/12 12:36:15;;;;;;;10.13;5.67;;;;;;;8.62;88.82;100422.53;6273736;28;20048;-86
2023/01/12 12:39:43;;;;;;;7.90;4.03;;;;;;;8.97;86.87;100426.06;6273494;28;20713;-80
2023/01/12 12:46:34;;;;;;;8.07;3.88;;;;;;;9.18;81.10;100416.38;6273367;28;20044;-80
2023/01/12 12:49:38;;;;;;;9.60;3.60;;;;;;;8.83;81.20;100412.84;6271962;28;20056;-79
2023/01/12 12:52:40;;;;;;;11.38;4.65;;;;;;;9.14;80.54;100417.44;6288843;28;20049;-79
2023/01/12 12:55:45;;;;;;;14.63;4.43;;;;;;;9.08;80.75;100402.97;6255402;28;20483;-79
2023/01/12 12:58:52;;;;;;;10.80;3.30;;;;;;;8.85;79.86;100417.09;6272923;28;20044;-79
2023/01/12 13:01:55;;;;;;;11.00;3.47;;;;;;;8.74;79.98;100415.91;6271924;28;20041;-79
2023/01/12 13:04:57;;;;;;;5.90;3.58;;;;;;;8.52;81.84;100416.91;6271698;28;20044;-86
2023/01/12 13:07:58;;;;;;;6.88;3.67;;;;;;;8.38;83.89;100408.88;6272817;28;20048;-86
2023/01/12 13:10:59;;;;;;;6.72;3.75;;;;;;;8.65;84.61;100419.81;6254898;28;20052;-79
2023/01/12 13:14:15;;;;;;;6.00;3.42;;;;;;;8.63;83.63;100425.06;6271472;28;20045;-85
2023/01/12 13:17:22;;;;;;;7.88;4.00;;;;;;;8.84;81.25;100427.56;6272735;28;20045;-86
2023/01/12 13:20:36;;;;;;;10.98;4.30;;;;;;;8.83;82.10;100421.53;6272529;28;20063;-86
2023/01/12 13:23:50;;;;;;;13.02;5.40;;;;;;;8.73;79.83;100409.88;6272160;28;20120;-80
2023/01/12 13:26:52;;;;;;;11.27;5.22;;;;;;;8.76;78.06;100417.53;6258617;28;20499;-79
2023/01/12 13:30:25;;;;;;;28.17;11.35;;;;;;;8.80;79.66;100423.44;6259692;28;20041;-86
2023/01/12 13:33:27;;;;;;;8.48;3.75;;;;;;;8.71;80.01;100424.72;6246855;28;20441;-80
2023/01/12 13:36:30;;;;;;;7.10;3.65;;;;;;;8.81;80.64;100428.56;6246514;28;20052;-79
2023/01/12 13:39:39;;;;;;;8.20;5.35;;;;;;;8.89;80.25;100436.00;6262661;28;20382;-80
2023/01/12 13:46:17;;;;;;;6.05;3.40;;;;;;;8.73;80.18;100422.03;6246216;28;20077;-79
2023/01/12 13:49:30;;;;;;;6.65;3.72;;;;;;;8.55;81.66;100418.56;6247465;28;20050;-86
2023/01/12 13:52:34;;;;;;;8.68;4.03;;;;;;;8.50;82.63;100425.72;6246229;28;20079;-86
2023/01/12 13:55:37;;;;;;;4.43;2.88;;;;;;;8.37;82.36;100425.41;6245699;28;20406;-80
2023/01/12 13:58:45;;;;;;;5.20;3.38;;;;;;;8.32;84.40;100428.22;6245917;28;20490;-80
2023/01/12 14:01:50;;;;;;;5.47;3.63;;;;;;;8.33;83.82;100429.06;6262573;28;20055;-79
2023/01/12 14:05:15;;;;;;;7.43;3.83;;;;;;;8.27;84.41;100423.22;6245865;28;20049;-86
2023/01/12 14:08:39;;;;;;;7.53;3.38;;;;;;;7.86;87.15;100425.06;6245813;28;20045;-79
2023/01/12 14:11:46;;;;;;;13.63;7.18;;;;;;;7.70;90.12;100418.84;6262397;28;20091;-79
2023/01/12 14:18:39;;;;;;;12.70;5.88;;;;;;;7.60;92.24;100416.66;6245069;28;20053;-80
2023/01/12 14:21:42;;;;;;;10.95;5.05;;;;;;;7.49;93.16;100411.06;6262115;28;20132;-79
2023/01/12 14:24:43;;;;;;;8.90;4.25;;;;;;;7.43;94.06;100430.38;6245372;28;20053;-79
2023/01/12 14:27:52;;;;;;;9.93;4.57;;;;;;;7.44;94.23;100431.19;6245550;28;20107;-79
2023/01/12 14:30:55;;;;;;;5.75;3.60;;;;;;;7.42;94.42;100428.66;6261156;28;20117;-80
2023/01/12 14:34:00;;;;;;;8.43;5.00;;;;;;;7.35;95.28;100423.78;6271447;28;20508;-85
2023/01/12 14:37:06;;;;;;;9.80;4.75;;;;;;;7.35;94.86;100427.25;6270305;28;20404;-85
2023/01/12 14:40:29;;;;;;;5.80;3.88;;;;;;;7.27;95.79;100429.31;6270450;28;20055;-86
2023/01/12 14:46:56;;;;;;;10.15;5.18;;;;;;;7.10;97.82;100429.97;6275937;28;20048;-85
2023/01/12 14:50:13;;;;;;;8.02;5.03;;;;;;;7.16;97.55;100424.53;6276041;28;20052;-86
2023/01/12 14:53:30;;;;;;;8.93;4.78;;;;;;;7.10;98.10;100435.16;6276066;28;20451;-86
2023/01/12 14:56:47;;;;;;;9.82;5.55;;;;;;;6.99;98.78;100424.38;6276015;28;20449;-86
2023/01/12 14:59:49;;;;;;;19.23;9.13;;;;;;;7.04;98.85;100435.41;6274604;28;20045;-86
2023/01/12 15:02:54;;;;;;;40.83;18.23;;;;;;;7.00;99.85;100439.91;6275850;28;20049;-85
2023/01/12 15:05:55;;;;;;;103.40;42.40;;;;;;;7.00;99.97;100439.91;6274878;28;20048;-79
2023/01/12 15:09:01;;;;;;;102.15;42.35;;;;;;;7.01;100.00;100425.19;6276254;28;20037;-80